Arcadia, Texas
Current Conditions -  °F | °C
As of 7:53 PM on Wednesday 26 Nov 2014 (Local Time) from KLVJ Reporting Station
Clear Clear  
Wind Chill: 57°   Ceiling: Unl
Heat Index: 57°   Visibility: 10mi
Dew Point: 42°   Wind: 10mph
Humidity: 57%   Direction: 160°SSE
Pressure: 30.28"   Gusts: NA
Location:  29.3723°N, 95.1328°W
Report Text: KLVJ 270153Z AUTO 16009KT 10SM CLR 14/06 A3028 RMK AO2 SLP252 T01390056
Loading
Personal Weather Stations






























Interactive Weather Map New forecast layout! Learn more

10-Day Weather Forecast

Advertisements
Track Severe Weather on mobile